Wolf Creek Observed Data For Previous 48 Hours

Caption
Day and Hour Reservoir Elevation (behind dam)* Tailwater Elevation (below dam)* Average Hourly Discharge*
4/22/2018 1 AM CDT 726.62 561.92 25,670
4/22/2018 2 AM CDT 726.60 561.90 25,670
4/22/2018 3 AM CDT 726.55 561.95 25,670
4/22/2018 4 AM CDT 726.52 561.92 25,670
4/22/2018 5 AM CDT 726.50 561.90 25,490
4/22/2018 6 AM CDT 726.48 561.98 25,490
4/22/2018 7 AM CDT 726.46 561.86 25,490
4/22/2018 8 AM CDT 726.44 561.84 25,400
4/22/2018 9 AM CDT 726.42 561.82 25,400
4/22/2018 10 AM CDT 726.40 561.80 25,400
4/22/2018 11 AM CDT 726.37 561.77 25,400
4/22/2018 12 PM CDT 726.34 561.74 25,400
4/22/2018 1 PM CDT 726.31 561.71 25,400
4/22/2018 2 PM CDT 726.28 561.78 25,400
4/22/2018 3 PM CDT 726.25 561.75 25,400
4/22/2018 4 PM CDT 726.22 561.72 25,310
4/22/2018 5 PM CDT 726.19 561.79 25,440
4/22/2018 6 PM CDT 726.16 561.76 25,440
4/22/2018 7 PM CDT 726.15 561.75 25,440
4/22/2018 8 PM CDT 726.12 561.72 25,440
4/22/2018 9 PM CDT 726.12 561.72 25,440
4/22/2018 10 PM CDT 726.12 561.72 25,440
4/22/2018 11 PM CDT 726.12 561.72 25,440
4/23/2018 12 AM CDT 726.12 561.72 25,440
4/23/2018 1 AM CDT 726.01 561.51 25,220
4/23/2018 2 AM CDT 725.97 561.47 25,130
4/23/2018 3 AM CDT 725.95 561.45 25,130
4/23/2018 4 AM CDT 725.93 561.43 25,130
4/23/2018 5 AM CDT 725.91 561.41 25,130
4/23/2018 6 AM CDT 725.90 561.40 25,130
4/23/2018 7 AM CDT 725.88 561.48 25,260
4/23/2018 8 AM CDT 725.86 561.46 25,260
4/23/2018 9 AM CDT 725.85 561.05 21,530
4/23/2018 10 AM CDT 725.84 560.54 21,530
4/23/2018 11 AM CDT 725.83 560.33 21,390
4/23/2018 12 PM CDT 725.82 560.12 21,390
4/23/2018 1 PM CDT 725.80 560.00 21,390
4/23/2018 2 PM CDT 725.78 560.08 21,390
4/23/2018 3 PM CDT 725.76 560.06 21,390
4/23/2018 4 PM CDT 725.74 560.04 21,390
4/23/2018 5 PM CDT 725.72 560.02 21,390
4/23/2018 6 PM CDT 725.70 560.00 21,390
4/23/2018 7 PM CDT 725.70 560.00 21,390
4/23/2018 8 PM CDT 725.69 560.00 21,390
4/23/2018 9 PM CDT 725.69 560.00 21,390
4/23/2018 10 PM CDT 725.69 560.00 21,390
4/23/2018 11 PM CDT 725.68 560.00 21,390
4/24/2018 12 AM CDT 725.68 560.00 21,390
4/24/2018 1 AM CDT 725.66 559.97 21,390
4/24/2018 2 AM CDT 725.64 559.94 21,390
4/24/2018 3 AM CDT 725.64 559.94 21,390
4/24/2018 4 AM CDT 725.64 559.94 21,390
4/24/2018 5 AM CDT 725.66 559.96 21,390
4/24/2018 6 AM CDT 725.66 559.96 21,390
4/24/2018 7 AM CDT 725.67 560.02 21,390
4/24/2018 8 AM CDT 725.67 560.07 21,390
4/24/2018 9 AM CDT 725.66 560.06 21,390
4/24/2018 10 AM CDT 725.66 560.16 21,530
4/24/2018 11 AM CDT 725.68 560.18 21,530
4/24/2018 12 PM CDT 725.68 560.18 21,530
4/24/2018 1 PM CDT 725.69 560.19 21,530
4/24/2018 2 PM CDT 725.72 560.12 21,530
4/24/2018 3 PM CDT 725.77 560.17 21,530
4/24/2018 4 PM CDT 725.82 560.12 21,530

Elevations are in feet above sea level. Discharges are in cubic feet per second and are reported at the end of the hour.